Time;durP1;ratioP1;P1;durP2;ratioP2;P2;SDS_P1;SDS_P2;PMS_P1;PMS_P2;Temp;Humidity;BMP_temperature;BMP_pressure;BME280_temperature;BME280_humidity;BME280_pressure;Samples;Min_cycle;Max_cycle;Signal;HPM_P1;HPM_P2
2022/12/11 00:00:45;;;;;;;27.48;8.88;;;;;;;13.01;100.00;95216.31;5063424;28;20168;-59
2022/12/11 00:03:11;;;;;;;24.75;8.13;;;;;;;13.16;100.00;95200.13;5063490;28;20084;-61
2022/12/11 00:05:42;;;;;;;33.80;8.90;;;;;;;13.30;100.00;95189.44;5062369;28;20060;-61
2022/12/11 00:08:10;;;;;;;29.73;9.02;;;;;;;13.39;100.00;95197.19;5063445;28;20052;-61
2022/12/11 00:10:37;;;;;;;34.75;8.65;;;;;;;13.39;100.00;95186.84;5063861;28;20551;-60
2022/12/11 00:13:04;;;;;;;28.60;7.68;;;;;;;13.33;100.00;95177.47;5063520;28;20048;-61
2022/12/11 00:15:31;;;;;;;28.38;8.57;;;;;;;13.45;100.00;95179.53;5063842;28;20125;-61
2022/12/11 00:17:57;;;;;;;27.27;7.95;;;;;;;13.53;100.00;95196.88;5063270;28;20114;-61
2022/12/11 00:20:24;;;;;;;33.13;8.75;;;;;;;13.38;100.00;95132.44;5063543;28;20060;-61
2022/12/11 00:22:50;;;;;;;31.75;8.38;;;;;;;13.55;100.00;95200.75;5063288;28;20713;-61
2022/12/11 00:25:17;;;;;;;35.58;8.65;;;;;;;13.02;100.00;95067.81;5043378;28;20115;-61
2022/12/11 00:27:46;;;;;;;37.50;9.23;;;;;;;13.80;100.00;95191.03;5041951;28;20144;-62
2022/12/11 00:30:13;;;;;;;43.75;9.20;;;;;;;13.89;100.00;95185.63;5043174;28;20516;-62
2022/12/11 00:32:40;;;;;;;24.63;7.05;;;;;;;13.96;100.00;95185.44;5043189;28;20088;-62
2022/12/11 00:35:07;;;;;;;21.98;7.75;;;;;;;13.95;100.00;95192.22;5043744;28;20053;-63
2022/12/11 00:37:34;;;;;;;30.67;9.77;;;;;;;13.82;100.00;95157.97;5041960;28;20395;-61
2022/12/11 00:40:01;;;;;;;30.23;8.95;;;;;;;14.06;100.00;95181.59;5042104;28;20060;-62
2022/12/11 00:42:27;;;;;;;27.45;8.23;;;;;;;13.87;100.00;95132.38;5042878;28;20084;-60
2022/12/11 00:44:55;;;;;;;25.35;7.25;;;;;;;13.62;100.00;95072.59;5043315;28;20053;-59
2022/12/11 00:47:21;;;;;;;20.80;8.15;;;;;;;14.06;100.00;95162.09;5043220;28;20048;-60
2022/12/11 00:49:48;;;;;;;30.92;9.80;;;;;;;13.75;100.00;95141.47;5043312;28;20140;-60
2022/12/11 00:52:16;;;;;;;22.05;9.02;;;;;;;13.51;100.00;95111.03;5041701;28;20467;-60
2022/12/11 00:54:44;;;;;;;23.58;9.10;;;;;;;13.43;100.00;95090.22;5043242;28;20512;-60
2022/12/11 00:57:10;;;;;;;31.10;10.07;;;;;;;13.60;100.00;95114.00;5043458;28;20126;-61
2022/12/11 00:59:37;;;;;;;29.33;9.38;;;;;;;13.53;100.00;95085.59;5044988;28;20136;-60
2022/12/11 01:02:04;;;;;;;30.83;9.18;;;;;;;13.60;100.00;95091.75;5045112;28;20060;-60
2022/12/11 01:04:31;;;;;;;29.75;9.38;;;;;;;13.74;100.00;95098.19;5046636;28;20599;-61
2022/12/11 01:06:57;;;;;;;45.50;8.35;;;;;;;13.78;100.00;95101.63;5045080;28;20386;-61
2022/12/11 01:12:09;;;;;;;26.42;7.22;;;;;;;13.47;100.00;95026.94;5046702;28;20513;-61
2022/12/11 01:14:36;;;;;;;36.40;8.95;;;;;;;13.47;100.00;95054.75;5045254;28;20056;-60
2022/12/11 01:17:02;;;;;;;38.10;8.40;;;;;;;13.91;100.00;95086.53;5045249;28;20111;-61
2022/12/11 01:19:29;;;;;;;33.25;9.07;;;;;;;13.95;100.00;95075.31;5046216;28;20672;-61
2022/12/11 01:21:56;;;;;;;32.67;8.07;;;;;;;13.96;100.00;95063.75;5046360;28;20053;-60
2022/12/11 01:24:22;;;;;;;31.42;8.10;;;;;;;13.96;100.00;95074.88;5058486;28;20422;-60
2022/12/11 01:26:49;;;;;;;32.70;7.93;;;;;;;13.67;100.00;95018.47;5064846;28;20110;-61
2022/12/11 01:29:16;;;;;;;30.52;8.85;;;;;;;13.97;100.00;95047.84;5065975;28;20056;-60
2022/12/11 01:31:42;;;;;;;34.10;7.97;;;;;;;13.96;100.00;95043.50;5065432;28;20148;-60
2022/12/11 01:34:09;;;;;;;31.27;8.02;;;;;;;13.85;100.00;95048.59;5066433;28;20192;-62
2022/12/11 01:36:36;;;;;;;29.83;8.07;;;;;;;13.84;100.00;95050.56;5065593;28;20138;-60
2022/12/11 01:39:02;;;;;;;38.35;9.63;;;;;;;13.93;100.00;95030.44;5066350;28;20068;-61
2022/12/11 01:41:29;;;;;;;29.92;8.00;;;;;;;13.86;100.00;95030.66;5064118;28;20135;-60
2022/12/11 01:44:02;;;;;;;36.25;8.18;;;;;;;13.89;100.00;95035.34;5064698;28;20084;-61
2022/12/11 01:46:30;;;;;;;45.40;9.33;;;;;;;13.83;100.00;95023.19;5064494;28;20057;-60
2022/12/11 01:48:58;;;;;;;36.92;8.95;;;;;;;13.50;100.00;94994.66;5066137;28;20102;-60
2022/12/11 01:51:27;;;;;;;38.58;8.65;;;;;;;13.88;100.00;95020.63;5066253;28;20135;-60
2022/12/11 01:54:09;;;;;;;35.95;8.10;;;;;;;14.04;100.00;95026.13;5065894;28;20149;-60
2022/12/11 01:56:38;;;;;;;35.17;8.50;;;;;;;13.92;100.00;95020.53;5065151;28;20143;-60
2022/12/11 01:59:07;;;;;;;34.67;7.93;;;;;;;13.24;100.00;94906.81;5065800;28;20416;-61
2022/12/11 02:01:43;;;;;;;39.25;8.30;;;;;;;13.96;100.00;95019.22;5065756;28;20052;-61
2022/12/11 02:04:11;;;;;;;31.52;7.38;;;;;;;13.97;100.00;95003.31;5065826;28;20048;-61
2022/12/11 02:06:39;;;;;;;33.20;8.77;;;;;;;13.99;100.00;94995.28;5064970;28;20504;-61
2022/12/11 02:09:10;;;;;;;38.35;10.43;;;;;;;14.03;100.00;94995.97;5063160;28;20064;-61
2022/12/11 02:12:00;;;;;;;36.75;9.48;;;;;;;14.04;100.00;94980.81;5064958;28;21018;-61
2022/12/11 02:15:04;;;;;;;33.03;8.63;;;;;;;13.83;100.00;94959.19;5056072;28;20135;-62
2022/12/11 02:17:44;;;;;;;36.40;9.23;;;;;;;13.76;100.00;94953.81;5065183;28;20135;-61
2022/12/11 02:20:23;;;;;;;39.88;10.10;;;;;;;13.34;100.00;94895.41;5065537;28;20159;-60
2022/12/11 02:23:02;;;;;;;38.63;7.82;;;;;;;13.37;100.00;94918.78;5065245;28;20582;-61
2022/12/11 02:25:47;;;;;;;34.67;8.07;;;;;;;13.66;100.00;94950.91;5045224;28;20048;-61
2022/12/11 02:28:17;;;;;;;27.50;7.25;;;;;;;13.59;100.00;94953.88;5044753;28;20143;-60
2022/12/11 02:30:56;;;;;;;30.77;8.38;;;;;;;13.54;100.00;94960.00;5044894;28;20165;-61
2022/12/11 02:33:33;;;;;;;32.50;8.05;;;;;;;13.53;100.00;94947.28;5044749;28;20045;-61
2022/12/11 02:36:00;;;;;;;30.63;7.53;;;;;;;13.50;100.00;94914.81;5043475;28;20151;-62
2022/12/11 02:38:31;;;;;;;31.42;7.90;;;;;;;13.56;100.00;94935.28;5044608;28;20128;-61
2022/12/11 02:40:59;;;;;;;34.35;9.93;;;;;;;13.17;100.00;94907.78;5044902;28;20215;-61
2022/12/11 02:43:27;;;;;;;31.13;9.25;;;;;;;13.45;100.00;94968.19;5044577;28;20056;-61
2022/12/11 02:45:56;;;;;;;32.42;9.68;;;;;;;13.47;100.00;94971.31;5043202;28;20110;-60
2022/12/11 02:48:23;;;;;;;23.25;8.45;;;;;;;13.37;100.00;94983.50;5045134;28;20128;-61
2022/12/11 02:50:55;;;;;;;34.28;9.90;;;;;;;13.27;100.00;94987.34;5044498;28;20122;-60
2022/12/11 02:53:27;;;;;;;24.30;9.13;;;;;;;13.13;100.00;94962.72;5044719;28;20517;-60
2022/12/11 02:56:17;;;;;;;32.53;9.50;;;;;;;13.30;100.00;94947.56;5044789;28;20139;-60
2022/12/11 02:58:49;;;;;;;37.88;9.95;;;;;;;13.15;100.00;94960.25;5044524;28;20850;-60
2022/12/11 03:01:24;;;;;;;45.10;22.02;;;;;;;13.08;100.00;94966.03;5044629;28;20126;-62
2022/12/11 03:03:53;;;;;;;40.90;12.68;;;;;;;13.17;100.00;94957.84;5044985;28;20418;-61
2022/12/11 03:06:23;;;;;;;37.60;12.70;;;;;;;13.24;100.00;94949.31;5044425;28;20053;-61
2022/12/11 03:08:50;;;;;;;33.38;12.35;;;;;;;13.28;100.00;94936.09;5043635;28;20053;-61
2022/12/11 03:11:17;;;;;;;42.92;12.30;;;;;;;13.31;100.00;94937.97;5044127;28;20048;-61
2022/12/11 03:13:44;;;;;;;28.13;10.40;;;;;;;13.42;100.00;94924.56;5044668;28;20052;-60
2022/12/11 03:16:32;;;;;;;26.75;9.65;;;;;;;13.41;100.00;94931.34;5043249;28;20175;-61
2022/12/11 03:19:46;;;;;;;31.17;9.27;;;;;;;13.42;100.00;94932.91;5043367;28;20127;-61
2022/12/11 03:22:24;;;;;;;33.40;10.43;;;;;;;13.07;100.00;94897.75;5040086;28;20061;-61
2022/12/11 03:24:59;;;;;;;38.58;10.88;;;;;;;13.16;100.00;94922.94;5059502;28;20375;-62
2022/12/11 03:27:35;;;;;;;28.05;10.20;;;;;;;13.39;100.00;94941.34;5064173;28;20530;-61
2022/12/11 03:30:09;;;;;;;34.53;11.80;;;;;;;13.36;100.00;94926.34;5064147;28;20586;-60
2022/12/11 03:32:50;;;;;;;48.38;11.57;;;;;;;13.15;100.00;94926.91;5063467;28;20070;-61
2022/12/11 03:35:31;;;;;;;47.90;11.80;;;;;;;13.22;100.00;94926.72;5063595;28;20052;-61
2022/12/11 03:38:04;;;;;;;31.52;9.38;;;;;;;13.18;100.00;94930.81;5063910;28;20575;-60
2022/12/11 03:40:34;;;;;;;32.20;7.83;;;;;;;13.27;100.00;94923.41;5063866;28;20087;-60
2022/12/11 03:43:02;;;;;;;28.02;7.07;;;;;;;13.08;100.00;94904.88;5064052;28;20056;-62
2022/12/11 03:45:29;;;;;;;24.50;7.80;;;;;;;13.38;100.00;94946.16;5063762;28;20526;-60
2022/12/11 03:47:58;;;;;;;26.00;7.18;;;;;;;13.21;100.00;94944.63;5063817;28;20483;-59
2022/12/11 03:50:28;;;;;;;32.33;7.45;;;;;;;12.85;100.00;94893.19;5063312;28;20067;-61
2022/12/11 03:52:57;;;;;;;21.75;7.55;;;;;;;13.27;100.00;94934.53;5061885;28;20048;-60
2022/12/11 03:55:25;;;;;;;33.47;9.07;;;;;;;13.28;100.00;94946.41;5063631;28;20223;-62
2022/12/11 03:57:52;;;;;;;34.35;9.68;;;;;;;13.28;100.00;94947.22;5062128;28;20152;-61
2022/12/11 04:00:20;;;;;;;29.23;9.35;;;;;;;13.31;100.00;94996.38;5061822;28;20056;-60
2022/12/11 04:05:50;;;;;;;32.17;8.85;;;;;;;13.29;100.00;94943.19;5063414;28;20053;-60
2022/12/11 04:08:22;;;;;;;31.23;10.13;;;;;;;13.56;100.00;94946.41;5063428;28;20182;-61
2022/12/11 04:11:33;;;;;;;20.88;9.50;;;;;;;13.29;100.00;94937.63;5063358;28;20102;-61
2022/12/11 04:13:40;;;;;;;28.13;9.70;;;;;;;12.93;100.00;94925.88;5064058;28;20106;-61
2022/12/11 04:16:07;;;;;;;46.72;12.07;;;;;;;13.11;100.00;94937.34;5064194;28;20110;-61
2022/12/11 04:24:15;;;;;;;30.75;10.85;;;;;;;13.05;100.00;94925.22;5063452;28;20056;-60
2022/12/11 04:26:46;;;;;;;28.98;10.02;;;;;;;13.05;100.00;94925.22;5063722;28;20060;-60
2022/12/11 04:29:14;;;;;;;31.30;12.70;;;;;;;13.09;100.00;94939.78;5063088;28;20111;-61
2022/12/11 04:31:40;;;;;;;37.00;14.70;;;;;;;13.21;100.00;94930.72;5062971;28;20095;-60
2022/12/11 04:34:07;;;;;;;34.70;14.02;;;;;;;13.06;100.00;94912.88;5065929;28;20075;-62
2022/12/11 04:36:34;;;;;;;33.00;12.45;;;;;;;12.92;100.00;94935.44;5065611;28;20107;-60
2022/12/11 04:39:02;;;;;;;32.17;12.65;;;;;;;12.89;100.00;94953.00;5066178;28;20048;-60
2022/12/11 04:41:28;;;;;;;28.00;10.90;;;;;;;12.95;100.00;94951.25;5067124;28;20056;-61
2022/12/11 04:43:55;;;;;;;31.00;10.55;;;;;;;12.83;100.00;94943.63;5067165;28;20088;-60
2022/12/11 04:46:23;;;;;;;26.38;9.13;;;;;;;12.98;100.00;94953.16;5067058;28;20048;-60
2022/12/11 04:48:51;;;;;;;24.88;9.13;;;;;;;13.04;100.00;94956.97;5066667;28;20040;-60
2022/12/11 04:51:23;;;;;;;27.70;9.23;;;;;;;13.22;100.00;94962.88;5066714;28;20063;-59
2022/12/11 04:53:49;;;;;;;24.05;9.52;;;;;;;13.22;100.00;94960.09;5067308;28;20056;-60
2022/12/11 04:56:16;;;;;;;30.05;8.93;;;;;;;13.24;100.00;94949.31;5067046;28;20484;-60
2022/12/11 04:58:44;;;;;;;25.92;8.63;;;;;;;13.21;100.00;94936.28;5066655;28;20053;-62
2022/12/11 05:01:13;;;;;;;23.65;9.50;;;;;;;13.21;100.00;94936.28;5066579;28;20499;-62
2022/12/11 05:03:40;;;;;;;31.58;12.57;;;;;;;13.16;100.00;94941.59;5066575;28;20044;-61
2022/12/11 05:06:08;;;;;;;30.02;14.60;;;;;;;12.88;100.00;94908.97;5066936;28;20110;-63
2022/12/11 05:08:37;;;;;;;51.88;21.05;;;;;;;13.16;100.00;94956.28;5066585;28;20052;-63
2022/12/11 05:11:06;;;;;;;51.15;24.33;;;;;;;13.23;100.00;94956.06;5066747;28;20101;-60
2022/12/11 05:13:33;;;;;;;46.20;21.17;;;;;;;13.30;100.00;94955.91;5064886;28;20087;-60
2022/12/11 05:16:03;;;;;;;41.25;19.65;;;;;;;12.81;100.00;94878.59;5066589;28;20131;-60
2022/12/11 05:18:30;;;;;;;43.20;20.65;;;;;;;12.93;100.00;94903.66;5066292;28;20513;-60
2022/12/11 05:20:58;;;;;;;48.70;21.92;;;;;;;13.32;100.00;94959.03;5066320;28;20348;-60
2022/12/11 05:23:26;;;;;;;37.47;18.90;;;;;;;13.32;100.00;94986.84;5066122;28;20096;-60
2022/12/11 05:25:58;;;;;;;36.97;16.08;;;;;;;13.48;100.00;94966.53;5066175;28;20523;-60
2022/12/11 05:28:26;;;;;;;35.95;13.80;;;;;;;13.32;100.00;94978.50;5066189;28;20083;-60
2022/12/11 05:30:58;;;;;;;32.72;15.07;;;;;;;13.24;100.00;94987.44;5066082;28;20565;-60
2022/12/11 05:33:25;;;;;;;34.47;13.68;;;;;;;13.27;100.00;94990.13;5064732;28;20083;-62
2022/12/11 05:35:52;;;;;;;28.05;8.98;;;;;;;12.82;100.00;94922.59;5064513;28;20048;-62
2022/12/11 05:38:19;;;;;;;23.55;8.02;;;;;;;13.25;100.00;94978.66;5064539;28;20566;-60
2022/12/11 05:40:58;;;;;;;24.25;8.77;;;;;;;13.18;100.00;94981.63;5066101;28;20060;-61
2022/12/11 05:43:27;;;;;;;24.63;8.52;;;;;;;13.15;100.00;94988.06;5066049;28;20048;-60
2022/12/11 05:45:55;;;;;;;25.33;8.63;;;;;;;13.14;100.00;94983.72;5064318;28;20048;-61
2022/12/11 05:48:22;;;;;;;22.60;11.95;;;;;;;13.19;100.00;94997.09;5064380;28;20140;-61
2022/12/11 05:50:58;;;;;;;20.08;9.57;;;;;;;12.97;100.00;94971.03;5065340;28;20499;-61
2022/12/11 05:53:25;;;;;;;26.10;8.05;;;;;;;13.12;100.00;95016.72;5065928;28;20059;-61
2022/12/11 05:55:52;;;;;;;19.23;7.25;;;;;;;13.16;100.00;95011.09;5065960;28;20474;-61
2022/12/11 05:58:19;;;;;;;26.23;7.97;;;;;;;13.09;100.00;95000.94;5065865;28;20388;-61
2022/12/11 06:00:46;;;;;;;28.33;9.32;;;;;;;12.72;100.00;94959.78;5064103;28;20131;-62
2022/12/11 06:03:13;;;;;;;20.67;10.90;;;;;;;12.92;100.00;95046.59;5064018;28;20076;-61
2022/12/11 06:05:41;;;;;;;71.53;30.13;;;;;;;12.46;100.00;94969.13;5065760;28;20067;-61
2022/12/11 06:08:08;;;;;;;104.60;48.45;;;;;;;12.85;100.00;95018.97;5063990;28;20044;-62
2022/12/11 06:10:34;;;;;;;65.32;31.35;;;;;;;12.87;100.00;95010.97;5065728;28;20137;-61
2022/12/11 06:13:01;;;;;;;46.88;19.88;;;;;;;12.63;100.00;94951.25;5065338;28;20128;-61
2022/12/11 06:15:28;;;;;;;52.97;23.60;;;;;;;12.53;100.00;94963.41;5065004;28;20496;-61
2022/12/11 06:17:55;;;;;;;46.17;20.05;;;;;;;12.97;100.00;95032.19;5065147;28;20349;-61
2022/12/11 06:20:21;;;;;;;41.22;17.55;;;;;;;12.94;100.00;95010.81;5065381;28;20127;-60
2022/12/11 06:22:48;;;;;;;58.30;30.65;;;;;;;13.21;100.00;95047.50;5065305;28;20084;-61
2022/12/11 06:25:14;;;;;;;66.68;37.15;;;;;;;13.15;100.00;95071.44;5063859;28;20530;-61
2022/12/11 06:27:41;;;;;;;72.07;39.00;;;;;;;13.15;100.00;95065.88;5065112;28;20185;-60
2022/12/11 06:30:08;;;;;;;64.30;36.00;;;;;;;13.24;100.00;95057.75;5063806;28;20118;-61
2022/12/11 06:32:35;;;;;;;64.75;35.80;;;;;;;13.37;100.00;95066.16;5064463;28;20088;-61
2022/12/11 06:35:02;;;;;;;59.65;34.25;;;;;;;13.18;100.00;95022.56;5063607;28;20503;-60
2022/12/11 06:37:29;;;;;;;57.90;32.03;;;;;;;13.50;100.00;95070.56;5064703;28;20052;-60
2022/12/11 06:39:55;;;;;;;60.45;34.80;;;;;;;13.56;100.00;95070.81;5063434;28;20126;-60
2022/12/11 06:42:22;;;;;;;75.05;44.47;;;;;;;13.66;100.00;95078.88;5057595;28;20079;-61
2022/12/11 06:44:49;;;;;;;100.97;53.17;;;;;;;13.72;100.00;95092.25;5064620;28;20044;-60
2022/12/11 06:47:15;;;;;;;100.10;55.35;;;;;;;13.62;100.00;95055.91;5064167;28;20159;-61
2022/12/11 06:49:42;;;;;;;104.78;58.30;;;;;;;14.00;100.00;95091.50;5064708;28;20048;-62
2022/12/11 06:52:08;;;;;;;119.28;67.88;;;;;;;13.89;100.00;95057.59;5064251;28;20114;-61
2022/12/11 06:54:43;;;;;;;131.70;70.10;;;;;;;14.13;100.00;95095.09;5063423;28;20053;-61
2022/12/11 06:57:10;;;;;;;99.25;55.22;;;;;;;14.09;100.00;95066.56;5064305;28;20510;-61
2022/12/11 06:59:37;;;;;;;103.25;55.80;;;;;;;14.15;100.00;95082.28;5064456;28;20067;-61
2022/12/11 07:02:04;;;;;;;83.85;47.00;;;;;;;14.19;100.00;95073.84;5062498;28;20430;-61
2022/12/11 07:04:30;;;;;;;80.20;42.17;;;;;;;14.39;100.00;95080.03;5064330;28;20529;-61
2022/12/11 07:06:57;;;;;;;74.40;41.10;;;;;;;13.59;100.00;94967.78;5064355;28;20057;-60
2022/12/11 07:09:24;;;;;;;51.42;25.75;;;;;;;14.02;100.00;94994.41;5064456;28;20059;-63
2022/12/11 07:11:52;;;;;;;72.53;36.00;;;;;;;14.59;100.00;95077.88;5062345;28;20139;-61
2022/12/11 07:14:19;;;;;;;62.05;29.75;;;;;;;14.53;100.00;95058.13;5062847;28;20117;-60
2022/12/11 07:16:45;;;;;;;47.38;26.35;;;;;;;14.67;100.00;95084.75;5062406;28;20098;-60
2022/12/11 07:19:12;;;;;;;52.28;34.78;;;;;;;12.92;100.00;94785.41;5062669;28;20496;-61
2022/12/11 07:21:39;;;;;;;49.35;24.50;;;;;;;14.64;100.00;95057.78;5061985;28;20939;-62
2022/12/11 07:24:06;;;;;;;21.77;9.65;;;;;;;15.08;100.00;95076.31;5064134;28;20157;-61
2022/12/11 07:26:33;;;;;;;24.63;10.48;;;;;;;14.97;100.00;95036.84;5063958;28;20056;-60
2022/12/11 07:29:00;;;;;;;35.85;13.05;;;;;;;15.26;100.00;95076.53;5063761;28;20055;-61
2022/12/11 07:31:28;;;;;;;40.45;21.40;;;;;;;15.49;100.00;95078.97;5063851;28;20129;-62
2022/12/11 07:34:05;;;;;;;35.75;19.00;;;;;;;15.56;100.00;95086.31;5063783;28;20052;-61
2022/12/11 07:36:33;;;;;;;37.38;17.08;;;;;;;15.73;100.00;95082.91;5062303;28;20100;-61
2022/12/11 07:39:00;;;;;;;45.17;19.83;;;;;;;15.62;100.00;95031.47;5062424;28;20131;-63
2022/12/11 07:41:27;;;;;;;36.38;14.85;;;;;;;15.96;100.00;95057.41;5062331;28;20143;-62
2022/12/11 07:43:55;;;;;;;31.30;12.02;;;;;;;16.15;99.69;95081.44;5063700;28;20048;-62
2022/12/11 07:46:24;;;;;;;33.28;16.23;;;;;;;16.28;96.19;95075.78;5062730;28;20106;-61
2022/12/11 07:48:51;;;;;;;33.40;15.27;;;;;;;16.26;96.87;95081.03;5063544;28;20533;-61
2022/12/11 07:51:21;;;;;;;36.80;15.23;;;;;;;16.33;97.07;95101.13;5063845;28;20139;-61
2022/12/11 07:53:48;;;;;;;34.72;16.65;;;;;;;16.39;96.38;95102.09;5062481;28;20083;-61
2022/12/11 07:56:17;;;;;;;32.00;16.08;;;;;;;16.48;94.01;95088.22;5063026;28;20053;-60
2022/12/11 07:58:44;;;;;;;41.22;16.02;;;;;;;16.25;94.30;95063.50;5078724;28;20147;-62
2022/12/11 08:01:14;;;;;;;30.63;13.05;;;;;;;16.40;95.75;95103.66;5061993;28;20139;-63
2022/12/11 08:03:42;;;;;;;29.50;13.90;;;;;;;16.13;96.68;95072.72;5063161;28;20501;-60
2022/12/11 08:06:09;;;;;;;29.60;14.15;;;;;;;16.63;94.61;95100.41;5063362;28;20380;-60
2022/12/11 08:08:36;;;;;;;26.70;11.27;;;;;;;16.72;95.58;95107.31;5066801;28;20087;-61
2022/12/11 08:11:05;;;;;;;27.15;12.48;;;;;;;16.77;95.91;95090.69;5066322;28;20045;-60
2022/12/11 08:13:32;;;;;;;39.17;14.60;;;;;;;17.00;95.45;95103.41;5067570;28;20113;-60
2022/12/11 08:16:03;;;;;;;30.20;17.35;;;;;;;17.15;94.81;95107.97;5065859;28;20142;-60
2022/12/11 08:18:30;;;;;;;32.85;14.73;;;;;;;16.86;93.85;95053.63;5067179;28;20049;-60
2022/12/11 08:20:56;;;;;;;38.50;15.32;;;;;;;16.69;92.43;95035.53;5065821;28;20615;-60
2022/12/11 08:23:23;;;;;;;32.22;14.95;;;;;;;17.17;92.56;95115.91;5065842;28;20090;-61
2022/12/11 08:25:49;;;;;;;34.15;17.90;;;;;;;17.30;92.10;95091.41;5067523;28;20523;-59
2022/12/11 08:28:16;;;;;;;40.72;21.10;;;;;;;17.07;90.90;95016.44;5067324;28;20060;-61
2022/12/11 08:30:43;;;;;;;40.53;20.13;;;;;;;17.69;89.44;95096.22;5065876;28;20102;-60
2022/12/11 08:33:09;;;;;;;39.13;21.20;;;;;;;17.81;89.16;95093.28;5065817;28;20053;-61
2022/12/11 08:35:40;;;;;;;36.70;17.58;;;;;;;17.94;88.03;95093.16;5065475;28;20056;-59
2022/12/11 08:38:06;;;;;;;37.22;18.10;;;;;;;18.26;86.22;95089.72;5067020;28;20080;-60
2022/12/11 08:40:33;;;;;;;38.50;19.40;;;;;;;18.50;85.74;95082.28;5066867;28;20130;-60
2022/12/11 08:43:00;;;;;;;33.58;17.88;;;;;;;18.46;84.35;95058.47;5067043;28;20060;-60
2022/12/11 08:45:26;;;;;;;24.35;11.65;;;;;;;18.59;81.69;95107.50;5066933;28;20091;-60
2022/12/11 08:47:53;;;;;;;22.85;11.73;;;;;;;18.47;82.76;95091.63;5066678;28;20371;-60
2022/12/11 08:50:19;;;;;;;25.33;10.65;;;;;;;18.49;81.44;95075.13;5067018;28;20498;-60
2022/12/11 08:52:46;;;;;;;24.95;11.82;;;;;;;18.50;80.97;95071.06;5065200;28;20048;-60
2022/12/11 08:55:13;;;;;;;27.48;10.02;;;;;;;18.52;80.76;95046.16;5065070;28;20088;-60
2022/12/11 08:57:40;;;;;;;28.70;11.95;;;;;;;18.91;79.43;95073.16;5065078;28;20052;-59
2022/12/11 09:00:08;;;;;;;27.52;10.43;;;;;;;18.94;79.47;95072.22;5066605;28;20092;-60
2022/12/11 09:02:35;;;;;;;23.85;10.88;;;;;;;19.07;80.20;95081.22;5066798;28;20049;-60
2022/12/11 09:05:06;;;;;;;19.45;9.65;;;;;;;19.20;79.27;95079.00;5065176;28;20475;-60
2022/12/11 09:07:34;;;;;;;19.83;8.68;;;;;;;19.33;77.44;95071.13;5065429;28;20048;-61
2022/12/11 09:10:02;;;;;;;24.67;9.60;;;;;;;19.57;77.49;95087.28;5066290;28;20102;-61
2022/12/11 09:12:30;;;;;;;21.70;10.93;;;;;;;19.82;77.16;95084.00;5066412;28;20473;-60
2022/12/11 09:14:56;;;;;;;19.92;8.05;;;;;;;19.74;75.86;95063.13;5066750;28;20083;-61
2022/12/11 09:17:23;;;;;;;15.35;7.03;;;;;;;19.86;73.85;95112.69;5066675;28;20603;-61
2022/12/11 09:19:49;;;;;;;17.92;8.63;;;;;;;19.87;74.37;95100.19;5065977;28;20131;-61
2022/12/11 09:22:16;;;;;;;21.60;9.93;;;;;;;19.98;72.93;95092.00;5066065;28;20083;-60
2022/12/11 09:24:42;;;;;;;20.88;9.35;;;;;;;19.86;73.14;95073.34;5066156;28;20139;-60
2022/12/11 09:27:09;;;;;;;21.27;9.20;;;;;;;19.72;73.73;95093.72;5064847;28;20053;-61
2022/12/11 09:29:37;;;;;;;23.25;7.70;;;;;;;19.57;74.13;95090.06;5065878;28;20578;-61
2022/12/11 09:32:04;;;;;;;22.42;8.25;;;;;;;19.30;74.68;95055.25;5066043;28;20074;-61
2022/12/11 09:34:30;;;;;;;17.73;6.68;;;;;;;18.69;75.62;94982.06;5065778;28;20056;-61
2022/12/11 09:36:58;;;;;;;14.65;7.28;;;;;;;19.46;74.54;95079.34;5064538;28;20048;-60
2022/12/11 09:39:24;;;;;;;26.70;11.85;;;;;;;19.03;74.88;95018.09;5066021;28;20087;-60
2022/12/11 09:42:25;;;;;;;14.07;6.80;;;;;;;19.25;76.27;95088.78;5065647;28;20102;-62
2022/12/11 09:44:54;;;;;;;17.25;6.70;;;;;;;19.26;76.96;95077.09;5064552;28;20113;-61
2022/12/11 09:47:33;;;;;;;15.43;6.75;;;;;;;19.35;76.65;95067.84;5065834;28;20109;-61
2022/12/11 09:50:14;;;;;;;11.02;4.60;;;;;;;19.21;76.74;95068.53;5065842;28;20128;-60
2022/12/11 09:52:56;;;;;;;15.80;5.80;;;;;;;19.21;76.73;95046.84;5065943;28;20048;-60
2022/12/11 09:55:24;;;;;;;10.77;5.40;;;;;;;19.20;76.56;95044.53;5064384;28;20045;-61
2022/12/11 09:57:51;;;;;;;12.65;4.28;;;;;;;19.06;76.84;95040.34;5064238;28;20131;-59
2022/12/11 10:00:26;;;;;;;11.65;5.32;;;;;;;19.32;75.34;95035.91;5065591;28;20135;-60
2022/12/11 10:02:52;;;;;;;11.00;5.00;;;;;;;19.51;74.55;95026.13;5065521;28;20056;-59
2022/12/11 10:05:35;;;;;;;14.38;4.05;;;;;;;19.60;74.54;95016.09;5064140;28;20060;-60
2022/12/11 10:08:16;;;;;;;14.15;5.72;;;;;;;19.72;73.83;95018.66;5065376;28;20143;-60
2022/12/11 10:10:59;;;;;;;17.25;7.55;;;;;;;19.80;74.37;95019.84;5065827;28;20067;-61
2022/12/11 10:13:38;;;;;;;11.57;4.30;;;;;;;19.70;74.21;95009.13;5065724;28;20554;-60
2022/12/11 10:16:11;;;;;;;14.98;5.28;;;;;;;19.64;74.27;95016.69;5064356;28;20131;-60
2022/12/11 10:18:38;;;;;;;7.35;4.40;;;;;;;19.63;73.87;95020.75;5065383;28;20114;-60
2022/12/11 10:21:06;;;;;;;15.75;5.85;;;;;;;19.67;74.75;95002.47;5065583;28;20044;-61
2022/12/11 10:23:45;;;;;;;26.98;10.27;;;;;;;19.74;73.79;95004.13;5064926;28;20060;-60
2022/12/11 10:26:17;;;;;;;32.15;12.82;;;;;;;19.77;73.84;95003.16;5065185;28;20083;-60
2022/12/11 10:28:44;;;;;;;13.48;6.80;;;;;;;19.84;73.43;95003.56;5065042;28;20102;-60
2022/12/11 10:31:19;;;;;;;9.55;5.30;;;;;;;20.07;72.46;94999.19;5063642;28;20064;-60
2022/12/11 10:33:54;;;;;;;14.10;6.63;;;;;;;20.19;72.32;94996.13;5063460;28;20086;-61
2022/12/11 10:36:27;;;;;;;10.68;5.70;;;;;;;20.37;71.04;95004.41;5063683;28;20098;-60
2022/12/11 10:38:54;;;;;;;12.07;5.53;;;;;;;20.39;70.44;95001.13;5064908;28;20053;-60
2022/12/11 10:41:36;;;;;;;9.48;5.05;;;;;;;20.49;70.62;94996.94;5064757;28;20131;-60
2022/12/11 10:44:16;;;;;;;8.27;4.93;;;;;;;19.76;70.60;95002.38;5064824;28;20082;-61
2022/12/11 10:46:44;;;;;;;13.80;5.95;;;;;;;19.70;71.92;94981.06;5076230;28;20112;-61
2022/12/11 10:49:26;;;;;;;9.40;5.72;;;;;;;19.59;71.27;94959.13;5064546;28;20060;-61
2022/12/11 10:51:54;;;;;;;9.63;5.53;;;;;;;19.86;70.59;94994.66;5064683;28;20114;-60
2022/12/11 10:54:29;;;;;;;13.20;6.43;;;;;;;19.80;72.29;95002.22;5064265;28;20560;-61
2022/12/11 10:56:57;;;;;;;15.30;7.88;;;;;;;19.86;70.83;95000.28;5064937;28;20123;-60
2022/12/11 10:59:42;;;;;;;10.65;6.32;;;;;;;19.98;70.34;95002.84;5064364;28;20095;-60
2022/12/11 11:02:35;;;;;;;13.05;5.63;;;;;;;20.07;69.75;94999.19;5064178;28;20481;-60
2022/12/11 11:05:26;;;;;;;14.95;5.80;;;;;;;19.63;70.95;94999.06;5063115;28;20109;-60
2022/12/11 11:08:13;;;;;;;10.43;5.53;;;;;;;19.96;70.16;94984.91;5064132;28;20121;-60
2022/12/11 11:10:53;;;;;;;12.10;6.00;;;;;;;19.61;70.14;94981.13;5064236;28;20048;-60
2022/12/11 11:13:23;;;;;;;12.13;5.78;;;;;;;19.29;69.53;94969.50;5062837;28;20105;-61
2022/12/11 11:16:05;;;;;;;8.82;4.85;;;;;;;19.55;70.07;94964.94;5062661;28;20044;-61
2022/12/11 11:18:33;;;;;;;11.48;4.32;;;;;;;19.71;69.28;94960.16;5064271;28;20503;-60
2022/12/11 11:21:01;;;;;;;10.68;5.07;;;;;;;19.89;69.06;94943.13;5064488;28;20059;-60
2022/12/11 11:23:28;;;;;;;13.18;7.22;;;;;;;19.93;68.52;94943.72;5064496;28;20143;-60
2022/12/11 11:26:05;;;;;;;19.58;6.50;;;;;;;19.92;68.95;94954.19;5062844;28;20521;-61
2022/12/11 11:28:47;;;;;;;13.68;5.43;;;;;;;20.19;68.02;94953.19;5064147;28;20052;-61
2022/12/11 11:31:15;;;;;;;9.43;4.75;;;;;;;20.44;65.82;94930.09;5063651;28;20091;-61
2022/12/11 11:33:46;;;;;;;7.15;4.05;;;;;;;20.79;63.20;94925.31;5063729;28;20048;-59
2022/12/11 11:36:20;;;;;;;10.95;4.65;;;;;;;21.08;64.57;94947.03;5062047;28;20090;-60
2022/12/11 11:39:25;;;;;;;10.50;6.10;;;;;;;21.48;63.16;94947.09;5062492;28;20076;-60
2022/12/11 11:42:00;;;;;;;8.95;5.65;;;;;;;21.72;61.46;94945.59;5063242;28;20605;-61